Time;durP1;ratioP1;P1;durP2;ratioP2;P2;SDS_P1;SDS_P2;PMS_P1;PMS_P2;Temp;Humidity;BMP_temperature;BMP_pressure;BME280_temperature;BME280_humidity;BME280_pressure;Samples;Min_cycle;Max_cycle;Signal;HPM_P1;HPM_P2
2023/10/07 00:01:22;;;;;;;19.70;4.35;;;16.80;99.90;;;;;;5074762;28;20382;-74
2023/10/07 00:03:50;;;;;;;23.77;4.88;;;16.80;99.90;;;;;;5074754;28;20047;-74
2023/10/07 00:06:16;;;;;;;21.98;5.40;;;16.80;99.90;;;;;;5074507;28;20374;-74
2023/10/07 00:08:42;;;;;;;17.88;4.35;;;16.80;99.90;;;;;;5074938;28;20045;-74
2023/10/07 00:11:16;;;;;;;17.25;4.30;;;16.80;99.90;;;;;;5074610;28;20516;-75
2023/10/07 00:13:42;;;;;;;26.02;5.00;;;16.90;99.90;;;;;;5074598;28;20041;-74
2023/10/07 00:16:14;;;;;;;19.45;4.32;;;16.90;99.90;;;;;;5074413;28;20090;-74
2023/10/07 00:18:40;;;;;;;20.20;4.43;;;16.90;99.90;;;;;;5074840;28;20045;-74
2023/10/07 00:21:13;;;;;;;21.35;4.65;;;16.90;99.90;;;;;;5074482;28;20072;-74
2023/10/07 00:23:38;;;;;;;21.65;4.80;;;16.90;99.90;;;;;;5074696;28;20067;-74
2023/10/07 00:26:09;;;;;;;20.75;4.68;;;16.80;99.90;;;;;;5074200;28;20501;-74
2023/10/07 00:28:38;;;;;;;19.50;4.28;;;16.80;99.90;;;;;;5057669;28;20040;-74
2023/10/07 00:31:12;;;;;;;19.67;4.70;;;16.90;99.90;;;;;;5057843;28;20047;-74
2023/10/07 00:38:59;;;;;;;20.02;4.35;;;16.90;99.90;;;;;;5074377;28;20048;-74
2023/10/07 00:41:36;;;;;;;17.42;5.32;;;16.90;99.90;;;;;;5074308;28;20044;-74
2023/10/07 00:44:16;;;;;;;23.08;4.72;;;16.90;99.90;;;;;;5072698;28;20120;-74
2023/10/07 00:46:44;;;;;;;19.88;4.38;;;16.90;99.90;;;;;;5073978;28;20039;-74
2023/10/07 00:49:20;;;;;;;22.25;4.90;;;16.90;99.90;;;;;;5074141;28;20085;-74
2023/10/07 00:51:47;;;;;;;20.08;4.35;;;16.90;99.90;;;;;;5073879;28;20412;-74
2023/10/07 00:54:18;;;;;;;23.55;4.85;;;16.90;99.90;;;;;;5073773;28;20032;-74
2023/10/07 00:56:53;;;;;;;17.35;5.05;;;16.90;99.90;;;;;;5074055;28;20545;-74
2023/10/07 00:59:20;;;;;;;17.92;5.10;;;17.00;99.90;;;;;;5073728;28;20043;-74
2023/10/07 01:01:50;;;;;;;25.40;5.18;;;16.90;99.90;;;;;;5073690;28;20040;-74
2023/10/07 01:04:16;;;;;;;19.30;4.75;;;16.80;99.90;;;;;;5074305;28;20048;-74
2023/10/07 01:06:45;;;;;;;19.95;4.78;;;16.90;99.90;;;;;;5056958;28;20033;-74
2023/10/07 01:09:22;;;;;;;19.38;5.32;;;16.90;99.90;;;;;;5057093;28;20040;-74
2023/10/07 01:11:57;;;;;;;19.88;4.43;;;17.00;99.90;;;;;;5073494;28;20098;-75
2023/10/07 01:14:26;;;;;;;25.65;4.85;;;16.90;99.90;;;;;;5073395;28;20047;-75
2023/10/07 01:16:53;;;;;;;22.67;4.90;;;16.90;99.90;;;;;;5073249;28;20461;-75
2023/10/07 01:19:26;;;;;;;26.13;4.88;;;16.90;99.90;;;;;;5073289;28;20398;-74
2023/10/07 01:21:58;;;;;;;21.35;4.90;;;17.00;99.90;;;;;;5073338;28;20044;-74
2023/10/07 01:27:07;;;;;;;20.58;5.25;;;16.90;99.90;;;;;;5073206;28;20489;-74
2023/10/07 01:29:37;;;;;;;20.33;4.22;;;16.90;99.90;;;;;;5056505;28;20390;-74
2023/10/07 01:32:12;;;;;;;18.70;5.35;;;16.80;99.90;;;;;;5073110;28;20047;-75
2023/10/07 01:34:37;;;;;;;21.02;4.85;;;16.80;99.90;;;;;;5073036;28;20040;-74
2023/10/07 01:37:05;;;;;;;19.90;5.10;;;16.90;99.90;;;;;;5072929;28;20097;-74
2023/10/07 01:39:40;;;;;;;19.42;4.97;;;16.90;99.90;;;;;;5073194;28;20477;-74
2023/10/07 01:42:14;;;;;;;18.67;5.05;;;16.80;99.90;;;;;;5072949;28;20127;-74
2023/10/07 01:44:41;;;;;;;23.48;4.82;;;16.80;99.90;;;;;;5072814;28;20119;-74
2023/10/07 01:47:23;;;;;;;20.48;5.40;;;16.90;99.90;;;;;;5072739;28;20062;-74
2023/10/07 01:49:53;;;;;;;19.50;5.22;;;16.90;99.90;;;;;;5072828;28;20044;-75
2023/10/07 01:52:19;;;;;;;19.88;5.13;;;16.90;99.90;;;;;;5072695;28;20040;-74
2023/10/07 01:54:45;;;;;;;18.10;4.80;;;16.90;99.90;;;;;;5072515;28;20408;-74
2023/10/07 01:57:10;;;;;;;26.75;6.13;;;16.90;99.90;;;;;;5072353;28;20505;-74
2023/10/07 01:59:36;;;;;;;19.52;4.95;;;17.00;99.90;;;;;;5072581;28;20067;-74
2023/10/07 02:02:06;;;;;;;20.13;4.82;;;16.90;99.90;;;;;;5072554;28;20079;-74
2023/10/07 02:04:32;;;;;;;18.90;4.40;;;17.00;99.90;;;;;;5056918;28;20033;-74
2023/10/07 02:06:58;;;;;;;16.88;4.68;;;16.90;99.90;;;;;;5072394;28;20079;-74
2023/10/07 02:09:25;;;;;;;22.00;4.57;;;17.00;99.90;;;;;;5072399;28;20076;-74
2023/10/07 02:12:03;;;;;;;18.77;4.60;;;17.00;99.90;;;;;;5072328;28;20076;-74
2023/10/07 02:14:28;;;;;;;20.80;4.85;;;17.00;99.90;;;;;;5072939;28;20120;-74
2023/10/07 02:16:57;;;;;;;18.55;4.72;;;17.00;99.90;;;;;;5072175;28;20123;-74
2023/10/07 02:19:29;;;;;;;19.70;4.65;;;17.00;99.90;;;;;;5072479;28;20048;-74
2023/10/07 02:21:59;;;;;;;17.92;4.85;;;17.00;99.90;;;;;;5072553;28;20070;-74
2023/10/07 02:24:32;;;;;;;20.95;5.38;;;17.00;99.90;;;;;;5072168;28;20182;-75
2023/10/07 02:27:07;;;;;;;17.38;4.22;;;17.00;99.90;;;;;;5072072;28;20036;-74
2023/10/07 02:29:34;;;;;;;21.05;4.97;;;17.00;99.90;;;;;;5072143;28;20036;-74
2023/10/07 02:32:12;;;;;;;18.95;4.40;;;17.10;99.90;;;;;;5072060;28;20040;-74
2023/10/07 02:34:51;;;;;;;16.58;4.50;;;17.00;99.90;;;;;;5055552;28;20028;-75
2023/10/07 02:37:17;;;;;;;16.52;4.72;;;17.00;99.90;;;;;;5071986;28;20094;-75
2023/10/07 02:39:46;;;;;;;17.00;4.72;;;17.10;99.90;;;;;;5071924;28;20041;-75
2023/10/07 02:42:21;;;;;;;21.95;5.28;;;17.00;99.90;;;;;;5071935;28;20040;-75
2023/10/07 02:45:01;;;;;;;22.30;5.30;;;17.10;99.90;;;;;;5055140;28;20085;-75
2023/10/07 02:47:33;;;;;;;15.90;4.38;;;17.10;99.90;;;;;;5071798;28;20044;-75
2023/10/07 02:50:02;;;;;;;18.23;4.28;;;17.10;99.90;;;;;;5071751;28;20382;-75
2023/10/07 02:52:36;;;;;;;18.95;4.45;;;17.10;99.90;;;;;;5071769;28;20120;-75
2023/10/07 02:57:55;;;;;;;20.13;4.30;;;17.10;99.90;;;;;;5071785;28;20045;-75
2023/10/07 03:00:38;;;;;;;18.73;4.57;;;17.10;99.90;;;;;;5055078;28;20048;-74
2023/10/07 03:06:00;;;;;;;18.83;4.53;;;17.20;99.90;;;;;;5061881;28;20072;-74
2023/10/07 03:11:12;;;;;;;17.67;4.15;;;17.20;99.90;;;;;;5076059;28;20075;-74
2023/10/07 03:13:45;;;;;;;19.30;4.30;;;17.20;99.90;;;;;;5075780;28;20041;-74
2023/10/07 03:18:56;;;;;;;14.95;3.88;;;17.10;99.90;;;;;;5075965;28;20048;-74
2023/10/07 03:21:42;;;;;;;14.93;4.35;;;17.20;99.90;;;;;;5059282;28;20063;-75
2023/10/07 03:24:13;;;;;;;15.88;3.92;;;17.20;99.90;;;;;;5075541;28;20496;-75
2023/10/07 03:26:41;;;;;;;17.05;4.03;;;17.20;99.90;;;;;;5075531;28;20032;-75
2023/10/07 03:29:07;;;;;;;14.25;4.22;;;17.20;99.90;;;;;;5075762;28;20059;-75
2023/10/07 03:34:12;;;;;;;;;;;17.20;99.90;;;;;;5075776;28;20054;-75
2023/10/07 03:36:41;;;;;;;25.58;5.40;;;17.10;99.90;;;;;;5075423;28;19920;-75
2023/10/07 03:41:41;;;;;;;17.30;4.47;;;17.10;99.90;;;;;;5075491;28;20114;-75
2023/10/07 03:44:07;;;;;;;14.98;3.97;;;17.10;99.90;;;;;;5075107;28;20044;-75
2023/10/07 03:46:34;;;;;;;18.67;4.13;;;17.10;99.90;;;;;;5058307;28;20063;-75
2023/10/07 03:49:01;;;;;;;17.55;4.10;;;17.20;99.90;;;;;;5075060;28;20044;-75
2023/10/07 03:51:30;;;;;;;16.00;3.90;;;17.20;99.90;;;;;;5058319;28;20044;-75
2023/10/07 03:54:08;;;;;;;18.50;4.18;;;17.20;99.90;;;;;;5075118;28;20050;-75
2023/10/07 03:56:34;;;;;;;16.30;4.07;;;17.20;99.90;;;;;;5058282;28;20489;-75
2023/10/07 03:59:00;;;;;;;18.45;3.83;;;17.20;99.90;;;;;;5075134;28;20047;-75
2023/10/07 04:01:27;;;;;;;19.15;4.65;;;17.20;99.90;;;;;;5074790;28;20492;-75
2023/10/07 04:03:59;;;;;;;14.80;3.58;;;17.20;99.90;;;;;;5074991;28;20045;-75
2023/10/07 04:06:30;;;;;;;13.68;4.43;;;17.20;99.90;;;;;;5074935;28;20037;-75
2023/10/07 04:09:05;;;;;;;19.20;4.13;;;17.10;99.90;;;;;;5074762;28;20093;-74
2023/10/07 04:11:36;;;;;;;18.90;4.15;;;17.30;99.90;;;;;;5074692;28;20040;-74
2023/10/07 04:14:07;;;;;;;18.95;4.38;;;17.20;99.90;;;;;;5074860;28;20504;-74
2023/10/07 04:16:33;;;;;;;12.60;3.63;;;17.20;99.90;;;;;;5074503;28;20094;-74
2023/10/07 04:21:44;;;;;;;16.58;4.28;;;17.30;99.90;;;;;;5074529;28;20048;-74
2023/10/07 04:24:11;;;;;;;19.23;4.13;;;17.30;99.90;;;;;;5074603;28;20405;-74
2023/10/07 04:26:40;;;;;;;15.43;3.92;;;17.30;99.90;;;;;;5074360;28;20029;-73
2023/10/07 04:29:16;;;;;;;19.55;4.35;;;17.30;99.90;;;;;;5074716;28;20114;-73
2023/10/07 04:31:45;;;;;;;19.17;4.45;;;17.30;99.90;;;;;;5074643;28;20485;-74
2023/10/07 04:34:15;;;;;;;16.30;4.47;;;17.20;99.90;;;;;;5074219;28;20041;-74
2023/10/07 04:39:31;;;;;;;16.42;4.53;;;17.20;99.90;;;;;;5074448;28;20497;-74
2023/10/07 04:41:59;;;;;;;17.33;4.30;;;17.20;99.90;;;;;;5074135;28;20036;-74
2023/10/07 04:47:34;;;;;;;18.67;4.40;;;17.20;99.90;;;;;;5074003;28;20044;-74
2023/10/07 04:50:15;;;;;;;19.25;4.72;;;17.20;99.90;;;;;;5074067;28;20044;-74
2023/10/07 04:52:50;;;;;;;12.43;4.43;;;17.20;99.90;;;;;;5073982;28;20558;-74
2023/10/07 04:55:19;;;;;;;21.92;4.65;;;17.10;99.90;;;;;;5074126;28;20048;-74
2023/10/07 05:00:36;;;;;;;19.13;4.75;;;17.20;99.90;;;;;;5073785;28;20040;-74
2023/10/07 05:03:14;;;;;;;17.42;4.20;;;17.10;99.90;;;;;;5073792;28;20113;-74
2023/10/07 05:05:43;;;;;;;18.40;5.07;;;17.10;99.90;;;;;;5073810;28;20041;-74
2023/10/07 05:08:16;;;;;;;16.05;4.40;;;17.10;99.90;;;;;;5073649;28;20051;-74
2023/10/07 05:10:42;;;;;;;17.40;4.28;;;17.20;99.90;;;;;;5073923;28;20048;-74
2023/10/07 05:13:10;;;;;;;17.77;4.30;;;17.10;99.90;;;;;;5073787;28;20401;-73
2023/10/07 05:15:38;;;;;;;19.25;4.88;;;17.20;99.90;;;;;;5073742;28;20133;-73
2023/10/07 05:18:05;;;;;;;19.40;4.75;;;17.10;99.90;;;;;;5073578;28;20074;-73
2023/10/07 05:20:37;;;;;;;23.13;4.50;;;17.10;99.90;;;;;;5073414;28;20504;-73
2023/10/07 05:23:04;;;;;;;16.27;4.00;;;17.10;99.90;;;;;;5073671;28;20082;-73
2023/10/07 05:25:38;;;;;;;15.07;4.43;;;17.10;99.90;;;;;;5073451;28;20082;-73
2023/10/07 05:28:10;;;;;;;18.75;4.07;;;17.10;99.90;;;;;;5056904;28;20048;-73
2023/10/07 05:30:50;;;;;;;;;;;17.10;99.90;;;;;;5073207;28;20115;-73
2023/10/07 05:33:20;;;;;;;23.58;4.50;;;17.10;99.90;;;;;;5073158;28;19920;-73
2023/10/07 05:35:49;;;;;;;12.18;4.03;;;17.10;99.90;;;;;;5073311;28;20050;-73
2023/10/07 05:38:17;;;;;;;15.10;4.30;;;17.10;99.90;;;;;;5073023;28;20079;-73
2023/10/07 05:40:42;;;;;;;18.20;5.05;;;17.20;99.90;;;;;;5073253;28;20064;-73
2023/10/07 05:43:08;;;;;;;19.55;4.63;;;17.10;99.90;;;;;;5072891;28;20410;-73
2023/10/07 05:45:35;;;;;;;22.33;5.20;;;17.10;99.90;;;;;;5072777;28;20048;-71
2023/10/07 05:48:01;;;;;;;24.20;5.15;;;17.10;99.90;;;;;;5073107;28;20127;-71
2023/10/07 05:50:32;;;;;;;16.63;4.50;;;17.10;99.90;;;;;;5072696;28;20040;-71
2023/10/07 05:53:04;;;;;;;15.63;4.47;;;17.10;99.90;;;;;;5072952;28;20048;-71
2023/10/07 05:55:31;;;;;;;19.40;4.53;;;17.10;99.90;;;;;;5072965;28;20040;-76
2023/10/07 05:57:58;;;;;;;15.98;4.32;;;17.00;99.90;;;;;;5072612;28;20071;-76
2023/10/07 06:00:25;;;;;;;18.02;4.30;;;17.10;99.90;;;;;;5055974;28;20553;-76
2023/10/07 06:02:52;;;;;;;20.35;5.07;;;17.10;99.90;;;;;;5072557;28;20523;-76
2023/10/07 06:05:27;;;;;;;16.15;4.60;;;17.00;99.90;;;;;;5072703;28;20059;-75
2023/10/07 06:07:57;;;;;;;20.27;5.53;;;17.00;99.90;;;;;;5072780;28;20041;-75
2023/10/07 06:10:24;;;;;;;16.13;4.32;;;17.10;99.90;;;;;;5072419;28;20047;-75
2023/10/07 06:12:53;;;;;;;19.67;4.88;;;17.10;99.90;;;;;;5072412;28;20044;-75
2023/10/07 06:15:19;;;;;;;17.27;4.20;;;17.00;99.90;;;;;;5072251;28;20378;-75
2023/10/07 06:17:44;;;;;;;19.00;4.88;;;17.10;99.90;;;;;;5072149;28;20090;-75
2023/10/07 06:20:14;;;;;;;19.75;4.93;;;17.00;99.90;;;;;;5072317;28;20052;-75
2023/10/07 06:22:46;;;;;;;18.50;4.60;;;17.10;99.90;;;;;;5072534;28;20098;-75
2023/10/07 06:25:15;;;;;;;12.80;4.25;;;17.00;99.90;;;;;;5072275;28;20040;-75
2023/10/07 06:27:43;;;;;;;18.20;4.30;;;17.00;99.90;;;;;;5072101;28;20048;-72
2023/10/07 06:30:11;;;;;;;15.48;4.45;;;17.00;99.90;;;;;;5072127;28;20455;-72
2023/10/07 06:32:49;;;;;;;14.23;4.47;;;17.00;99.90;;;;;;5072119;28;20080;-72
2023/10/07 06:35:21;;;;;;;18.73;5.78;;;17.00;99.90;;;;;;5072243;28;20086;-72
2023/10/07 06:37:46;;;;;;;17.60;4.53;;;17.00;99.90;;;;;;5072047;28;20464;-72
2023/10/07 06:40:35;;;;;;;18.95;5.35;;;17.00;99.90;;;;;;5072265;28;20044;-72
2023/10/07 06:42:58;;;;;;;22.17;5.68;;;17.00;99.90;;;;;;5071650;28;20052;-72
2023/10/07 06:45:35;;;;;;;15.80;4.32;;;17.10;99.90;;;;;;5071831;28;20051;-72
2023/10/07 06:48:09;;;;;;;21.23;5.60;;;17.10;99.90;;;;;;5072254;28;20108;-72
2023/10/07 06:50:35;;;;;;;20.05;4.60;;;17.10;99.90;;;;;;5055485;28;20095;-72
2023/10/07 06:53:02;;;;;;;19.45;5.18;;;17.10;99.90;;;;;;5071895;28;20044;-72
2023/10/07 06:55:33;;;;;;;15.20;4.43;;;17.10;99.90;;;;;;5071806;28;20093;-72
2023/10/07 06:57:59;;;;;;;21.10;4.30;;;17.10;99.90;;;;;;5071817;28;20501;-72
2023/10/07 07:00:27;;;;;;;14.18;4.55;;;17.20;99.90;;;;;;5072125;28;20037;-72
2023/10/07 07:03:09;;;;;;;15.57;4.00;;;17.20;99.90;;;;;;5071823;28;20037;-72
2023/10/07 07:05:35;;;;;;;22.15;4.90;;;17.20;99.90;;;;;;5072518;28;20077;-72
2023/10/07 07:08:03;;;;;;;16.10;4.93;;;17.20;99.90;;;;;;5071691;28;20036;-72
2023/10/07 07:10:31;;;;;;;15.20;4.40;;;17.20;99.90;;;;;;5071744;28;20044;-71
2023/10/07 07:13:05;;;;;;;17.42;4.25;;;17.30;99.90;;;;;;5071634;28;20463;-72
2023/10/07 07:15:36;;;;;;;20.38;5.30;;;17.30;99.90;;;;;;5071678;28;20064;-71
2023/10/07 07:18:08;;;;;;;21.80;5.22;;;17.30;99.90;;;;;;5054873;28;20036;-72
2023/10/07 07:20:48;;;;;;;19.30;4.38;;;17.30;99.90;;;;;;5071696;28;20457;-72
2023/10/07 07:23:16;;;;;;;21.42;4.63;;;17.30;99.90;;;;;;5071909;28;20048;-72
2023/10/07 07:25:43;;;;;;;21.40;5.18;;;17.40;99.90;;;;;;5071713;28;20036;-72
2023/10/07 07:28:09;;;;;;;16.35;4.05;;;17.50;99.90;;;;;;5071527;28;20441;-72
2023/10/07 07:30:35;;;;;;;21.70;5.60;;;17.50;99.90;;;;;;5073217;28;20124;-72
2023/10/07 07:33:12;;;;;;;16.10;4.45;;;17.60;99.90;;;;;;5071485;28;20116;-72
2023/10/07 07:35:43;;;;;;;14.38;4.85;;;17.60;99.90;;;;;;5071696;28;20037;-72
2023/10/07 07:38:17;;;;;;;16.65;4.38;;;17.60;99.90;;;;;;5071479;28;20047;-72
2023/10/07 07:40:43;;;;;;;17.75;4.88;;;17.60;99.90;;;;;;5071709;28;20111;-72
2023/10/07 07:43:13;;;;;;;18.42;4.95;;;17.60;99.90;;;;;;5071427;28;20128;-72
2023/10/07 07:45:39;;;;;;;17.58;4.07;;;17.60;99.90;;;;;;5071474;28;20044;-72
2023/10/07 07:48:05;;;;;;;21.15;4.75;;;17.70;99.90;;;;;;5071322;28;20048;-72
2023/10/07 07:50:35;;;;;;;15.38;4.20;;;17.70;99.90;;;;;;5071338;28;20037;-72
2023/10/07 07:53:06;;;;;;;17.25;4.32;;;17.70;99.90;;;;;;5071296;28;20501;-72
2023/10/07 07:55:34;;;;;;;16.55;3.78;;;17.70;99.90;;;;;;5074983;28;20040;-72
2023/10/07 07:57:59;;;;;;;14.48;4.20;;;17.70;99.90;;;;;;5075014;28;20072;-72
2023/10/07 08:00:26;;;;;;;18.92;4.18;;;17.80;99.90;;;;;;5074950;28;20064;-72
2023/10/07 08:02:55;;;;;;;14.75;4.30;;;17.90;99.90;;;;;;5074842;28;20378;-72
2023/10/07 08:05:21;;;;;;;16.40;4.57;;;17.90;99.90;;;;;;5075069;28;20041;-71
2023/10/07 08:07:51;;;;;;;14.43;4.32;;;18.00;99.90;;;;;;5058032;28;20063;-72
2023/10/07 08:10:20;;;;;;;15.35;4.82;;;18.10;99.90;;;;;;5074744;28;20051;-72
2023/10/07 08:12:50;;;;;;;16.48;4.60;;;18.10;99.90;;;;;;5074749;28;20048;-72
2023/10/07 08:15:23;;;;;;;18.65;3.97;;;18.00;99.90;;;;;;5074617;28;20115;-70
2023/10/07 08:17:56;;;;;;;17.42;4.78;;;18.10;99.90;;;;;;5074527;28;20053;-70
2023/10/07 08:20:33;;;;;;;17.40;5.05;;;18.10;99.90;;;;;;5074606;28;20057;-70
2023/10/07 08:23:07;;;;;;;19.42;5.00;;;18.10;99.90;;;;;;5074546;28;20059;-70
2023/10/07 08:25:49;;;;;;;21.17;4.78;;;18.10;99.90;;;;;;5074362;28;20418;-70
2023/10/07 08:28:18;;;;;;;18.13;4.30;;;18.10;99.90;;;;;;5074505;28;20044;-70
2023/10/07 08:30:47;;;;;;;16.63;5.05;;;18.00;99.90;;;;;;5074413;28;20494;-70
2023/10/07 08:33:23;;;;;;;16.33;4.10;;;18.00;99.90;;;;;;5074380;28;20071;-70
2023/10/07 08:35:51;;;;;;;19.08;4.80;;;18.00;99.90;;;;;;5074529;28;20052;-70
2023/10/07 08:38:23;;;;;;;19.67;5.47;;;17.90;99.90;;;;;;5074268;28;20041;-70
2023/10/07 08:41:05;;;;;;;19.40;4.72;;;18.00;99.90;;;;;;5075528;28;20048;-70
2023/10/07 08:43:38;;;;;;;15.85;4.78;;;17.90;99.90;;;;;;5074229;28;20059;-70
2023/10/07 08:46:08;;;;;;;16.08;4.50;;;18.00;99.90;;;;;;5073944;28;20405;-71
2023/10/07 08:48:38;;;;;;;18.00;4.75;;;18.00;99.90;;;;;;5074365;28;20053;-71
2023/10/07 08:51:14;;;;;;;20.02;5.78;;;18.00;99.90;;;;;;5074345;28;20443;-71
2023/10/07 08:53:43;;;;;;;20.02;5.93;;;18.00;99.90;;;;;;5074030;28;20051;-71
2023/10/07 08:56:09;;;;;;;15.45;4.50;;;18.00;99.90;;;;;;5073857;28;20090;-71
2023/10/07 08:58:39;;;;;;;16.90;5.13;;;18.00;99.90;;;;;;5073892;28;20047;-71
2023/10/07 09:01:07;;;;;;;23.67;5.22;;;18.00;99.90;;;;;;5074219;28;20036;-71
2023/10/07 09:03:39;;;;;;;20.80;5.65;;;18.00;99.90;;;;;;5075317;28;20094;-71
2023/10/07 09:06:09;;;;;;;17.47;4.57;;;18.10;99.90;;;;;;5073345;28;20469;-71
2023/10/07 09:08:35;;;;;;;19.38;4.63;;;18.10;99.90;;;;;;5073705;28;20062;-72
2023/10/07 09:11:06;;;;;;;16.30;4.63;;;18.10;99.90;;;;;;5073658;28;20370;-72
2023/10/07 09:13:38;;;;;;;21.15;5.07;;;18.20;99.90;;;;;;5074464;28;20040;-72
2023/10/07 09:16:07;;;;;;;16.02;4.63;;;18.30;99.90;;;;;;5073502;28;20083;-70
2023/10/07 09:18:39;;;;;;;17.58;4.75;;;18.30;99.90;;;;;;5073436;28;20505;-70
2023/10/07 09:21:09;;;;;;;19.38;4.95;;;18.40;99.90;;;;;;5073819;28;20074;-70
2023/10/07 09:23:47;;;;;;;16.45;4.85;;;18.40;99.90;;;;;;5073367;28;20048;-70
2023/10/07 09:26:56;;;;;;;22.50;4.57;;;18.40;99.90;;;;;;5073445;28;20436;-70
2023/10/07 09:29:24;;;;;;;19.08;5.13;;;18.50;99.90;;;;;;5070725;28;20153;-70
2023/10/07 09:32:07;;;;;;;17.80;4.40;;;18.60;99.90;;;;;;5072972;28;20127;-70
2023/10/07 09:34:45;;;;;;;;;;;18.60;99.90;;;;;;5073578;28;20089;-70
2023/10/07 09:37:20;;;;;;;16.75;5.10;;;18.60;99.90;;;;;;5073161;28;19985;-70
2023/10/07 09:39:54;;;;;;;17.92;4.70;;;18.60;99.90;;;;;;5073091;28;20048;-70
2023/10/07 09:42:26;;;;;;;16.65;4.80;;;18.60;99.90;;;;;;5056626;28;20081;-70
2023/10/07 09:45:17;;;;;;;13.20;4.07;;;18.60;99.90;;;;;;5072947;28;20048;-70
2023/10/07 09:47:44;;;;;;;13.55;4.03;;;18.60;99.90;;;;;;5072857;28;20080;-70
2023/10/07 09:50:19;;;;;;;14.30;3.97;;;18.60;99.90;;;;;;5072858;28;20040;-70
2023/10/07 09:53:14;;;;;;;13.77;3.95;;;18.60;99.90;;;;;;5072849;28;20111;-70
2023/10/07 09:55:40;;;;;;;18.23;4.85;;;18.70;99.90;;;;;;5063517;28;20149;-70
2023/10/07 09:58:41;;;;;;;17.13;4.97;;;18.70;99.90;;;;;;5072942;28;20044;-71
2023/10/07 10:01:34;;;;;;;16.35;4.40;;;18.80;99.90;;;;;;5072932;28;20044;-71
2023/10/07 10:04:17;;;;;;;17.60;4.88;;;18.90;99.90;;;;;;5072604;28;20040;-72
2023/10/07 10:07:13;;;;;;;16.30;4.47;;;18.80;99.90;;;;;;5072507;28;20040;-72
2023/10/07 10:10:00;;;;;;;20.25;4.88;;;18.90;99.90;;;;;;5072539;28;20036;-72
2023/10/07 10:12:37;;;;;;;18.73;4.85;;;18.90;99.90;;;;;;5072730;28;20032;-72
2023/10/07 10:17:55;;;;;;;16.60;5.13;;;18.80;99.90;;;;;;5072200;28;20583;-72
2023/10/07 10:20:27;;;;;;;17.38;4.72;;;18.80;99.90;;;;;;5072326;28;20417;-72
2023/10/07 10:22:57;;;;;;;18.07;5.57;;;18.80;99.90;;;;;;5072355;28;20516;-72
2023/10/07 10:25:36;;;;;;;16.08;4.25;;;18.90;99.90;;;;;;5072167;28;20049;-72
2023/10/07 10:28:03;;;;;;;16.48;4.60;;;18.90;99.90;;;;;;5072545;28;20044;-72
2023/10/07 10:30:29;;;;;;;18.30;5.15;;;19.00;99.90;;;;;;5072146;28;20041;-71
2023/10/07 10:33:00;;;;;;;17.92;4.25;;;19.10;99.90;;;;;;5072367;28;20086;-71
2023/10/07 10:35:27;;;;;;;14.10;4.47;;;19.20;99.90;;;;;;5072101;28;20090;-71
2023/10/07 10:37:59;;;;;;;17.65;5.10;;;19.20;99.90;;;;;;5072069;28;20049;-71
2023/10/07 10:40:31;;;;;;;15.55;4.80;;;19.20;99.90;;;;;;5072112;28;20044;-71
2023/10/07 10:42:57;;;;;;;14.55;5.32;;;19.20;99.90;;;;;;5073586;28;20052;-71
2023/10/07 10:45:26;;;;;;;14.45;4.47;;;19.20;99.90;;;;;;5071884;28;20044;-71
2023/10/07 10:47:57;;;;;;;17.13;4.50;;;19.30;99.90;;;;;;5071824;28;20040;-71
2023/10/07 10:50:23;;;;;;;17.35;5.32;;;19.30;99.90;;;;;;5073728;28;20123;-71
2023/10/07 10:52:50;;;;;;;22.95;5.68;;;19.30;99.90;;;;;;5071944;28;20044;-71
2023/10/07 10:55:17;;;;;;;15.70;4.43;;;19.40;99.90;;;;;;5071822;28;20032;-71
2023/10/07 10:57:43;;;;;;;17.15;4.75;;;19.50;99.90;;;;;;5071820;28;20234;-71
2023/10/07 11:00:22;;;;;;;16.80;5.60;;;19.60;99.90;;;;;;5071811;28;20056;-71
2023/10/07 11:02:55;;;;;;;15.52;4.93;;;19.60;99.90;;;;;;5071868;28;20052;-71
2023/10/07 11:05:21;;;;;;;;;;;19.60;99.90;;;;;;5072156;28;20048;-72
2023/10/07 11:07:50;;;;;;;16.30;4.78;;;19.60;99.90;;;;;;5071656;28;20411;-72
2023/10/07 11:10:23;;;;;;;12.88;4.65;;;19.60;99.90;;;;;;5071717;28;20489;-73
2023/10/07 11:12:52;;;;;;;18.00;4.90;;;19.60;99.90;;;;;;5071742;28;20110;-73
2023/10/07 11:15:25;;;;;;;15.32;4.95;;;19.60;99.90;;;;;;5071618;28;20032;-73
2023/10/07 11:18:12;;;;;;;13.15;4.65;;;19.60;99.90;;;;;;5071574;28;20117;-73
2023/10/07 11:20:40;;;;;;;15.02;4.78;;;19.60;99.90;;;;;;5071671;28;20150;-73
2023/10/07 11:23:08;;;;;;;14.65;4.90;;;19.70;99.90;;;;;;5071601;28;20564;-73
2023/10/07 11:25:35;;;;;;;15.45;4.47;;;19.70;99.90;;;;;;5073028;28;20500;-71
2023/10/07 11:28:09;;;;;;;17.00;5.70;;;19.80;99.90;;;;;;5071815;28;20044;-71
2023/10/07 11:30:47;;;;;;;20.50;5.00;;;19.80;99.90;;;;;;5075888;28;20036;-70
2023/10/07 11:33:17;;;;;;;17.02;5.03;;;19.80;99.90;;;;;;5075579;28;20098;-78
2023/10/07 11:35:45;;;;;;;19.92;5.15;;;19.70;99.90;;;;;;5075697;28;20036;-70
2023/10/07 11:38:12;;;;;;;16.25;5.95;;;19.60;99.90;;;;;;5075410;28;20041;-71
2023/10/07 11:40:39;;;;;;;14.90;5.05;;;19.50;99.90;;;;;;5075330;28;20115;-70
2023/10/07 11:43:08;;;;;;;16.88;5.20;;;19.40;99.90;;;;;;5075298;28;20051;-71
2023/10/07 11:45:35;;;;;;;17.10;4.63;;;19.40;99.90;;;;;;5075255;28;20044;-71
2023/10/07 11:48:05;;;;;;;18.20;5.15;;;19.40;99.90;;;;;;5075168;28;20076;-71
2023/10/07 11:50:35;;;;;;;16.25;4.85;;;19.40;99.90;;;;;;5075159;28;20047;-71
2023/10/07 11:53:05;;;;;;;17.77;4.57;;;19.40;99.90;;;;;;5075172;28;20079;-71
2023/10/07 11:55:34;;;;;;;13.55;5.22;;;19.50;99.90;;;;;;5075031;28;20072;-70
2023/10/07 11:58:01;;;;;;;19.60;5.57;;;19.90;99.90;;;;;;5075270;28;20401;-71
2023/10/07 12:00:34;;;;;;;14.13;4.45;;;20.40;99.90;;;;;;5075469;28;20044;-71
2023/10/07 12:03:06;;;;;;;13.55;4.70;;;21.10;99.90;;;;;;5075192;28;20040;-70
2023/10/07 12:05:32;;;;;;;17.63;4.97;;;21.50;99.90;;;;;;5074918;28;20036;-71
2023/10/07 12:08:02;;;;;;;16.55;4.82;;;21.40;99.90;;;;;;5074723;28;20051;-71
2023/10/07 12:10:28;;;;;;;16.40;5.30;;;21.20;99.90;;;;;;5074987;28;20075;-71
2023/10/07 12:12:54;;;;;;;18.42;5.03;;;21.00;99.90;;;;;;5058079;28;20042;-71
2023/10/07 12:15:21;;;;;;;14.60;4.32;;;20.90;99.90;;;;;;5074597;28;20120;-71
2023/10/07 12:17:49;;;;;;;14.10;4.75;;;20.80;99.90;;;;;;5074702;28;20040;-71
2023/10/07 12:20:15;;;;;;;19.67;5.00;;;20.60;99.90;;;;;;5074571;28;20094;-71
2023/10/07 12:22:42;;;;;;;16.13;4.97;;;20.50;99.90;;;;;;5074523;28;20076;-71
2023/10/07 12:25:18;;;;;;;19.45;5.07;;;20.40;99.90;;;;;;5074400;28;20532;-71
2023/10/07 12:27:49;;;;;;;13.10;4.55;;;20.40;99.90;;;;;;5074480;28;20095;-71
2023/10/07 12:30:22;;;;;;;14.93;4.97;;;20.40;99.90;;;;;;5074378;28;20076;-71
2023/10/07 12:32:48;;;;;;;13.13;4.57;;;20.30;99.90;;;;;;5074563;28;20044;-71
2023/10/07 12:35:15;;;;;;;15.45;4.70;;;20.30;99.90;;;;;;5074437;28;20040;-71
2023/10/07 12:37:47;;;;;;;17.33;4.78;;;20.30;99.90;;;;;;5074233;28;20037;-71
2023/10/07 12:40:20;;;;;;;12.70;4.68;;;20.30;99.90;;;;;;5074342;28;20556;-70
2023/10/07 12:42:50;;;;;;;12.27;4.68;;;20.40;99.90;;;;;;5074209;28;20044;-70
2023/10/07 12:45:16;;;;;;;15.77;4.32;;;20.40;99.90;;;;;;5074373;28;20051;-70
2023/10/07 12:47:42;;;;;;;15.35;4.30;;;20.50;99.90;;;;;;5074026;28;20036;-70
2023/10/07 12:50:20;;;;;;;14.23;4.78;;;20.60;99.90;;;;;;5074036;28;20121;-70
2023/10/07 12:52:50;;;;;;;13.80;4.70;;;20.80;99.90;;;;;;5074311;28;20045;-70
2023/10/07 12:55:19;;;;;;;13.73;4.70;;;21.00;99.90;;;;;;5057208;28;20125;-71
2023/10/07 12:57:49;;;;;;;13.88;4.75;;;21.00;99.90;;;;;;5073864;28;20502;-71
2023/10/07 13:00:31;;;;;;;15.38;4.50;;;20.90;99.90;;;;;;5074042;28;20067;-71
2023/10/07 13:02:58;;;;;;;10.27;4.53;;;20.80;99.90;;;;;;5074072;28;20505;-70
2023/10/07 13:05:24;;;;;;;12.77;4.43;;;20.70;99.90;;;;;;5075510;28;20091;-71
2023/10/07 13:07:51;;;;;;;13.18;4.60;;;20.70;99.90;;;;;;5073631;28;20458;-70
2023/10/07 13:10:17;;;;;;;20.13;5.20;;;20.60;99.90;;;;;;5073695;28;20115;-70
2023/10/07 13:12:47;;;;;;;12.43;4.68;;;20.60;99.90;;;;;;5073615;28;20497;-70
2023/10/07 13:15:16;;;;;;;13.52;5.45;;;20.50;99.90;;;;;;5073560;28;20162;-70
2023/10/07 13:17:46;;;;;;;14.55;4.78;;;20.50;99.90;;;;;;5073435;28;20516;-70
2023/10/07 13:20:17;;;;;;;13.23;4.38;;;20.50;99.90;;;;;;5073480;28;20517;-70
2023/10/07 13:22:42;;;;;;;13.73;4.35;;;20.40;99.90;;;;;;5074729;28;20040;-70
2023/10/07 13:25:09;;;;;;;12.77;4.40;;;20.20;99.90;;;;;;5073272;28;20085;-70
2023/10/07 13:27:39;;;;;;;15.75;4.43;;;20.10;99.90;;;;;;5073297;28;20082;-70
2023/10/07 13:30:11;;;;;;;14.13;4.55;;;20.10;99.90;;;;;;5073283;28;20040;-70
2023/10/07 13:32:37;;;;;;;16.23;5.60;;;20.00;99.90;;;;;;5073306;28;20040;-70
2023/10/07 13:35:08;;;;;;;13.10;4.60;;;19.90;99.90;;;;;;5073353;28;20497;-70